Airfield :
LOGIN :

Register | Disclaimer

   EN    FR    IT 

 










Legend :    VFR   Marginal VFR   IFR   Intensive IFR   Very Intensive IFR
Visi :
Ceiling :
>= 8 km
>= 3000ft
5 to 8 km
1000 to 3000 ft
1500m to 5 km
500 to 1000 ft
800 to 1500m
200 to 500 ft
< 800m
< 200 ft
Symbols :   Thunderstorms  Fog  Heavy snow  Heavy precipitations  Wind > 20 kt
SIGMETs :     Misc.  Thunderstorms  Icing  Turbulence  Mountain Waves  Volcanic Ashes






- Airport Elevation : 1306 ft
- IATA code : ACH


LSZR - Alten Rhein

CURRENT METAR :
  • 252120Z AUTO VRB03KT 9999 BKN023 OVC026 12/11 Q1013 RERA

EXPIRED METARs :
  • 252050Z AUTO VRB01KT 9999 -RA BKN025 12/10 Q1013
  • 252020Z AUTO 05003KT 350V110 9999 FEW039 SCT049 BKN055 12/11 Q1013 REDZ
  • 251950Z AUTO VRB03KT 9999 DZ FEW045 BKN050 BKN060 12/11 Q1013
  • 251920Z AUTO 14004KT 9999 FEW035 OVC055 12/11 Q1013
  • 251850Z AUTO VRB01KT 9999 SCT044 BKN050 13/11 Q1013

TAF TAF LSZR
Valid from the 25 at 15:00 until the 26 at 00:00 UTC


251425Z 2515/2524 28005KT 9999 SCT010 BKN060
TEMPO 2515/2524 SHRA SCT030TCU
PROB30
TEMPO 2515/2521 TSRA SCT030CB
ATIS : +41 71 858 51 66



MET'MAP, your aeronautical weather chart ! - Copyright ORBIFLY December 2007 - Disclaimer

ORBIFLY MET'MAP TEAM :

Programming & Development : Alexandra Zaïnal
Original concept : Baudouin d'Aumeries
Technical & hardware support : Manuel Goepfert
Assistance : Marc-Olivier Méhu




SOURCES & CREDITS :

   NOAA